Time;durP1;ratioP1;P1;durP2;ratioP2;P2;SDS_P1;SDS_P2;PMS_P1;PMS_P2;Temp;Humidity;BMP_temperature;BMP_pressure;BME280_temperature;BME280_humidity;BME280_pressure;Samples;Min_cycle;Max_cycle;Signal;HPM_P1;HPM_P2
2021/06/24 00:00:09;;;;;;;0.40;0.40;;;;;;;15.20;90.30;97090.88;29395;274;63009;-59
2021/06/24 00:00:51;;;;;;;0.45;0.45;;;;;;;15.19;90.07;97091.97;29395;227;63004;-58
2021/06/24 00:01:23;;;;;;;0.50;0.50;;;;;;;15.20;90.24;97087.31;29394;206;64013;-58
2021/06/24 00:01:54;;;;;;;0.47;0.47;;;;;;;15.20;90.47;97093.59;29395;325;63004;-61
2021/06/24 00:02:25;;;;;;;0.43;0.43;;;;;;;15.20;90.95;97093.59;29395;213;63008;-58
2021/06/24 00:02:56;;;;;;;0.40;0.40;;;;;;;15.20;90.81;97088.13;29395;215;63004;-59
2021/06/24 00:03:30;;;;;;;0.50;0.50;;;;;;;15.20;91.06;97092.78;29394;242;64014;-59
2021/06/24 00:04:02;;;;;;;0.40;0.40;;;;;;;15.19;90.87;97091.19;29395;219;63005;-58
2021/06/24 00:04:33;;;;;;;0.50;0.50;;;;;;;15.18;90.81;97090.37;29395;203;63009;-58
2021/06/24 00:05:07;;;;;;;0.88;0.88;;;;;;;15.18;90.91;97095.84;29395;212;63005;-59
2021/06/24 00:05:39;;;;;;;0.50;0.50;;;;;;;15.19;90.73;97091.19;29395;223;63009;-58
2021/06/24 00:06:11;;;;;;;0.43;0.43;;;;;;;15.20;90.96;97093.59;29394;305;64009;-58
2021/06/24 00:06:42;;;;;;;0.40;0.40;;;;;;;15.21;90.70;97095.22;29394;254;64013;-58
2021/06/24 00:07:13;;;;;;;0.50;0.50;;;;;;;15.19;90.51;97091.19;29395;252;63004;-59
2021/06/24 00:07:45;;;;;;;0.50;0.50;;;;;;;15.19;90.69;97096.66;29395;225;63009;-58
2021/06/24 00:08:16;;;;;;;0.50;0.50;;;;;;;15.17;90.62;97085.22;29395;202;63004;-59
2021/06/24 00:08:47;;;;;;;0.47;0.47;;;;;;;15.18;90.74;97095.03;29395;197;63009;-58
2021/06/24 00:09:18;;;;;;;0.40;0.40;;;;;;;15.18;90.39;97093.09;29394;212;64021;-59
2021/06/24 00:09:49;;;;;;;0.50;0.50;;;;;;;15.18;90.63;97087.63;29395;200;63008;-58
2021/06/24 00:10:20;;;;;;;0.40;0.40;;;;;;;15.19;90.29;97091.97;29395;211;63005;-59
2021/06/24 00:10:54;;;;;;;0.50;0.50;;;;;;;15.23;90.17;97082.03;29395;200;63005;-59
2021/06/24 00:11:25;;;;;;;0.50;0.50;;;;;;;15.26;89.72;97080.56;29395;224;63005;-58
2021/06/24 00:11:57;;;;;;;0.40;0.40;;;;;;;15.27;89.69;97091.19;29395;304;63009;-58
2021/06/24 00:12:28;;;;;;;0.50;0.50;;;;;;;15.26;89.29;97092.28;29395;345;63005;-60
2021/06/24 00:12:59;;;;;;;0.40;0.40;;;;;;;15.26;89.54;97083.28;29395;210;63009;-59
2021/06/24 00:13:31;;;;;;;0.40;0.40;;;;;;;15.25;89.49;97079.75;29394;205;64009;-58
2021/06/24 00:14:03;;;;;;;0.50;0.50;;;;;;;15.25;89.54;97079.75;29395;234;63009;-58
2021/06/24 00:14:35;;;;;;;0.50;0.50;;;;;;;15.23;89.57;97082.03;29395;223;63011;-58
2021/06/24 00:15:08;;;;;;;0.50;0.50;;;;;;;15.23;89.97;97081.22;29395;320;63016;-59
2021/06/24 00:15:40;;;;;;;0.50;0.50;;;;;;;15.23;90.08;97086.69;29395;222;63000;-59
2021/06/24 00:16:12;;;;;;;0.50;0.50;;;;;;;15.21;90.02;97084.28;29395;220;63009;-59
2021/06/24 00:16:43;;;;;;;0.50;0.50;;;;;;;15.22;89.90;97079.59;29394;325;64008;-59
2021/06/24 00:17:15;;;;;;;0.50;0.50;;;;;;;15.22;89.70;97080.41;29395;215;63008;-58
2021/06/24 00:17:46;;;;;;;0.40;0.40;;;;;;;15.24;89.62;97089.09;29395;204;63005;-59
2021/06/24 00:18:18;;;;;;;0.50;0.50;;;;;;;15.25;89.63;97084.41;29395;222;63009;-58
2021/06/24 00:18:49;;;;;;;0.50;0.50;;;;;;;15.27;89.51;97082.16;29395;213;63005;-58
2021/06/24 00:19:20;;;;;;;0.50;0.50;;;;;;;15.28;89.44;97079.13;29395;199;63009;-58
2021/06/24 00:19:51;;;;;;;0.50;0.50;;;;;;;15.28;89.12;97083.78;29395;299;63005;-59
2021/06/24 00:20:24;;;;;;;0.50;0.50;;;;;;;15.26;89.28;97080.56;29395;229;63009;-58
2021/06/24 00:20:56;;;;;;;0.50;0.50;;;;;;;15.24;89.09;97078.16;29395;213;63005;-59
2021/06/24 00:21:27;;;;;;;0.50;0.50;;;;;;;15.25;89.42;97085.22;29395;197;63009;-60
2021/06/24 00:22:03;;;;;;;0.50;0.50;;;;;;;15.26;89.53;97080.56;29394;280;64009;-59
2021/06/24 00:22:36;;;;;;;0.40;0.40;;;;;;;15.26;89.70;97075.09;29395;218;63009;-60
2021/06/24 00:23:08;;;;;;;0.50;0.50;;;;;;;15.26;89.63;97075.91;29395;199;63004;-60
2021/06/24 00:23:39;;;;;;;0.40;0.40;;;;;;;15.25;89.95;97079.75;29395;208;63026;-59
2021/06/24 00:24:11;;;;;;;0.50;0.50;;;;;;;15.22;89.88;97077.69;29395;205;63004;-60
2021/06/24 00:24:44;;;;;;;0.50;0.50;;;;;;;15.20;90.32;97077.19;29395;230;63008;-61
2021/06/24 00:25:16;;;;;;;0.50;0.50;;;;;;;15.15;90.46;97080.06;29395;237;63005;-59
2021/06/24 00:25:48;;;;;;;0.50;0.50;;;;;;;15.13;90.33;97082.31;29395;215;63009;-59
2021/06/24 00:26:20;;;;;;;0.50;0.50;;;;;;;15.13;90.27;97082.31;29395;243;63001;-60
2021/06/24 00:26:52;;;;;;;0.40;0.40;;;;;;;15.15;90.59;97073.81;29394;257;64013;-59
2021/06/24 00:27:23;;;;;;;0.50;0.50;;;;;;;15.15;90.26;97080.06;29395;205;63005;-59
2021/06/24 00:27:55;;;;;;;0.50;0.50;;;;;;;15.16;90.53;97080.88;29395;207;63009;-59
2021/06/24 00:28:27;;;;;;;0.50;0.50;;;;;;;15.17;90.17;97079.75;29395;388;63005;-58
2021/06/24 00:28:59;;;;;;;0.50;0.50;;;;;;;15.19;90.31;97081.06;29395;228;63009;-58
2021/06/24 00:29:30;;;;;;;0.50;0.50;;;;;;;15.19;90.53;97077.50;29395;220;63004;-59
2021/06/24 00:30:01;;;;;;;0.50;0.50;;;;;;;15.17;90.72;97072.34;29395;215;63009;-59
2021/06/24 00:30:34;;;;;;;0.50;0.50;;;;;;;15.20;90.24;97074.47;29395;233;63004;-58
2021/06/24 00:31:06;;;;;;;0.50;0.50;;;;;;;15.23;90.41;97082.03;29395;239;63009;-59
2021/06/24 00:31:37;;;;;;;0.40;0.40;;;;;;;15.23;90.11;97073.81;29395;203;63004;-60
2021/06/24 00:32:08;;;;;;;0.50;0.50;;;;;;;15.23;90.05;97076.56;29394;212;64013;-59
2021/06/24 00:32:40;;;;;;;0.57;0.57;;;;;;;15.24;89.98;97075.44;29395;252;63005;-59
2021/06/24 00:33:12;;;;;;;0.40;0.40;;;;;;;15.23;90.27;97076.56;29395;227;63009;-59
2021/06/24 00:33:43;;;;;;;0.40;0.40;;;;;;;15.23;90.24;97073.03;29395;253;63005;-59
2021/06/24 00:34:15;;;;;;;0.40;0.40;;;;;;;15.23;90.18;97078.50;29395;220;63009;-61
2021/06/24 00:34:46;;;;;;;0.50;0.50;;;;;;;15.22;90.01;97068.69;29395;206;63005;-61
2021/06/24 00:35:17;;;;;;;0.50;0.50;;;;;;;15.22;90.28;97077.69;29395;210;63009;-57
2021/06/24 00:35:49;;;;;;;0.50;0.50;;;;;;;15.26;89.93;97075.09;29395;357;63005;-60
2021/06/24 00:36:21;;;;;;;0.40;0.40;;;;;;;15.27;89.96;97082.97;29395;210;63009;-60
2021/06/24 00:36:52;;;;;;;0.50;0.50;;;;;;;15.28;89.77;97081.84;29394;204;64004;-61
2021/06/24 00:37:29;;;;;;;0.40;0.40;;;;;;;15.27;89.62;97079.44;29394;330;64013;-62
2021/06/24 00:38:04;;;;;;;0.40;0.40;;;;;;;15.25;90.09;97074.28;29395;231;63004;-61
2021/06/24 00:38:35;;;;;;;0.40;0.40;;;;;;;15.25;90.16;97079.75;29395;274;63009;-60
2021/06/24 00:39:07;;;;;;;0.40;0.40;;;;;;;15.25;90.31;97081.69;29395;256;63004;-61
2021/06/24 00:39:38;;;;;;;0.50;0.50;;;;;;;15.26;90.09;97080.56;29394;298;64013;-60
2021/06/24 00:40:11;;;;;;;0.40;0.40;;;;;;;15.25;90.49;97077.03;29395;227;63005;-60
2021/06/24 00:40:44;;;;;;;0.50;0.50;;;;;;;15.25;90.56;97079.75;29395;232;63009;-60
2021/06/24 00:41:16;;;;;;;0.50;0.50;;;;;;;15.26;90.18;97072.34;29395;203;63005;-60
2021/06/24 00:41:50;;;;;;;0.50;0.50;;;;;;;15.25;90.35;97068.81;29395;345;63009;-60
2021/06/24 00:42:23;;;;;;;0.50;0.50;;;;;;;15.25;90.29;97078.94;29395;198;63005;-61
2021/06/24 00:42:57;;;;;;;0.50;0.50;;;;;;;15.25;90.30;97082.47;29395;238;63009;-61
2021/06/24 00:43:29;;;;;;;0.50;0.50;;;;;;;15.24;90.31;97078.16;29395;205;63005;-61
2021/06/24 00:44:00;;;;;;;0.50;0.50;;;;;;;15.22;90.42;97074.94;29395;311;63009;-58
2021/06/24 00:44:31;;;;;;;0.50;0.50;;;;;;;15.20;90.84;97076.38;29394;205;64009;-61
2021/06/24 00:45:09;;;;;;;0.50;0.50;;;;;;;15.20;91.01;97077.19;29395;199;63009;-59
2021/06/24 00:45:41;;;;;;;0.50;0.50;;;;;;;15.25;90.50;97084.41;29395;222;63010;-59
2021/06/24 00:46:12;;;;;;;0.47;0.47;;;;;;;15.26;90.50;97080.56;29395;198;63009;-61
2021/06/24 00:46:45;;;;;;;0.50;0.50;;;;;;;15.25;90.20;97087.94;29395;197;63004;-62
2021/06/24 00:47:16;;;;;;;0.50;0.50;;;;;;;15.26;90.25;97086.03;29395;202;63008;-60
2021/06/24 00:47:47;;;;;;;0.40;0.40;;;;;;;15.26;90.55;97086.03;29395;261;63005;-58
2021/06/24 00:48:19;;;;;;;0.40;0.40;;;;;;;15.25;90.76;97079.75;29395;264;63009;-58
2021/06/24 00:48:58;;;;;;;0.50;0.50;;;;;;;15.25;90.70;97085.22;29394;298;64009;-58
2021/06/24 00:49:30;;;;;;;0.50;0.50;;;;;;;15.24;90.67;97089.09;29394;278;64013;-60
2021/06/24 00:50:02;;;;;;;0.50;0.50;;;;;;;15.24;90.61;97088.31;29395;213;63005;-60
2021/06/24 00:50:34;;;;;;;0.50;0.50;;;;;;;15.25;91.01;97096.16;29395;226;63009;-60
2021/06/24 00:51:05;;;;;;;0.50;0.50;;;;;;;15.25;90.90;97093.41;29394;225;64009;-61
2021/06/24 00:51:37;;;;;;;0.50;0.50;;;;;;;15.24;90.76;97091.84;29395;215;63009;-61
2021/06/24 00:52:08;;;;;;;0.50;0.50;;;;;;;15.21;90.64;97089.75;29395;197;63004;-60
2021/06/24 00:52:40;;;;;;;0.50;0.50;;;;;;;15.21;90.99;97097.13;29395;204;63009;-61
2021/06/24 00:53:13;;;;;;;0.50;0.50;;;;;;;15.20;90.78;97093.59;29395;218;63004;-58
2021/06/24 00:53:44;;;;;;;0.50;0.50;;;;;;;15.20;91.13;97099.06;29395;203;63008;-61
2021/06/24 00:54:16;;;;;;;0.50;0.50;;;;;;;15.22;91.20;97088.63;29395;205;63004;-60
2021/06/24 00:54:47;;;;;;;0.50;0.50;;;;;;;15.24;90.80;97089.09;29394;314;64013;-59
2021/06/24 00:55:18;;;;;;;0.50;0.50;;;;;;;15.24;90.68;97091.84;29395;208;63005;-61
2021/06/24 00:55:51;;;;;;;0.50;0.50;;;;;;;15.24;90.64;97089.09;29395;228;63009;-61
2021/06/24 00:56:31;;;;;;;0.50;0.50;;;;;;;15.25;90.85;97098.88;29395;214;63005;-61
2021/06/24 00:57:06;;;;;;;0.50;0.50;;;;;;;15.25;91.01;97090.69;29417;372;63009;-58
2021/06/24 00:57:37;;;;;;;0.50;0.50;;;;;;;15.24;91.10;97101.97;29395;223;63011;-59
2021/06/24 00:58:21;;;;;;;0.40;0.40;;;;;;;15.23;90.94;97095.69;29395;207;63009;-60
2021/06/24 00:58:55;;;;;;;0.50;0.50;;;;;;;15.24;91.03;97105.50;29395;350;63004;-61
2021/06/24 00:59:26;;;;;;;0.50;0.50;;;;;;;15.24;91.19;97094.56;29394;245;64032;-60
2021/06/24 00:59:58;;;;;;;0.60;0.60;;;;;;;15.25;91.06;97096.16;29395;223;63004;-61
2021/06/24 01:00:30;;;;;;;0.40;0.40;;;;;;;15.26;91.12;97095.03;29395;202;63009;-59
2021/06/24 01:01:01;;;;;;;0.50;0.50;;;;;;;15.27;91.20;97093.09;29395;196;63004;-60
2021/06/24 01:01:33;;;;;;;0.50;0.50;;;;;;;15.29;91.15;97091.66;29394;204;64008;-58
2021/06/24 01:02:05;;;;;;;0.50;0.50;;;;;;;15.29;90.79;97094.41;29395;233;63005;-62
2021/06/24 01:02:39;;;;;;;0.40;0.40;;;;;;;15.31;90.54;97094.88;29394;197;64014;-61
2021/06/24 01:03:11;;;;;;;0.40;0.40;;;;;;;15.30;90.54;97096.00;29395;360;63005;-59
2021/06/24 01:03:42;;;;;;;0.50;0.50;;;;;;;15.30;90.91;97087.81;29395;239;63009;-61
2021/06/24 01:04:23;;;;;;;0.50;0.50;;;;;;;15.30;90.64;97090.53;29395;296;63005;-60
2021/06/24 01:04:54;;;;;;;0.50;0.50;;;;;;;15.31;90.98;97085.88;29417;198;63009;-60
2021/06/24 01:05:26;;;;;;;0.50;0.50;;;;;;;15.32;90.58;97091.03;29373;199;63005;-60
2021/06/24 01:05:57;;;;;;;0.50;0.50;;;;;;;15.32;90.98;97085.56;29395;217;63009;-61
2021/06/24 01:06:29;;;;;;;0.50;0.50;;;;;;;15.32;90.79;97090.22;29395;258;63009;-61
2021/06/24 01:07:00;;;;;;;0.47;0.47;;;;;;;15.30;91.06;97085.06;29395;218;63009;-60
2021/06/24 01:07:32;;;;;;;0.50;0.50;;;;;;;15.30;90.83;97087.81;29394;198;64009;-61
2021/06/24 01:08:05;;;;;;;0.50;0.50;;;;;;;15.30;91.15;97087.81;29395;197;63009;-60
2021/06/24 01:08:36;;;;;;;0.50;0.50;;;;;;;15.29;91.00;97086.19;29395;231;63004;-60
2021/06/24 01:09:07;;;;;;;0.40;0.40;;;;;;;15.29;91.17;97091.66;29395;209;63008;-60
2021/06/24 01:09:38;;;;;;;0.50;0.50;;;;;;;15.31;91.25;97083.94;29395;254;63005;-60
2021/06/24 01:10:10;;;;;;;0.50;0.50;;;;;;;15.32;91.36;97091.03;29395;226;63009;-61
2021/06/24 01:10:45;;;;;;;0.50;0.50;;;;;;;15.34;91.14;97085.25;29394;198;64005;-61
2021/06/24 01:11:16;;;;;;;0.50;0.50;;;;;;;15.34;91.05;97082.50;29395;210;63009;-57
2021/06/24 01:11:48;;;;;;;0.40;0.40;;;;;;;15.36;90.92;97083.81;29395;225;63005;-62
2021/06/24 01:12:21;;;;;;;0.50;0.50;;;;;;;15.35;90.89;97087.66;29394;238;64013;-60
2021/06/24 01:12:53;;;;;;;0.50;0.50;;;;;;;15.35;90.79;97084.94;29394;212;64009;-61
2021/06/24 01:13:25;;;;;;;0.50;0.50;;;;;;;15.36;91.17;97081.06;29395;222;63009;-60
2021/06/24 01:13:57;;;;;;;0.50;0.50;;;;;;;15.36;91.05;97085.72;29394;211;64009;-59
2021/06/24 01:14:31;;;;;;;0.50;0.50;;;;;;;15.35;91.10;97087.66;29395;247;63009;-57
2021/06/24 01:15:03;;;;;;;0.50;0.50;;;;;;;15.36;91.18;97092.00;29395;246;63004;-61
2021/06/24 01:15:35;;;;;;;0.50;0.50;;;;;;;15.35;91.17;97090.41;29395;202;63009;-61
2021/06/24 01:16:06;;;;;;;0.50;0.50;;;;;;;15.34;91.10;97086.06;29395;221;63004;-61
2021/06/24 01:16:41;;;;;;;0.50;0.50;;;;;;;15.34;91.35;97094.25;29395;233;63008;-61
2021/06/24 01:17:12;;;;;;;0.50;0.50;;;;;;;15.34;91.32;97083.31;29395;240;63005;-64
2021/06/24 01:17:43;;;;;;;0.50;0.50;;;;;;;15.36;91.38;97089.28;29395;227;63009;-62
2021/06/24 01:18:14;;;;;;;0.50;0.50;;;;;;;15.37;91.21;97088.16;29395;203;63007;-60
2021/06/24 01:18:48;;;;;;;0.50;0.50;;;;;;;15.37;91.25;97088.16;29395;264;63018;-61
2021/06/24 01:19:20;;;;;;;0.50;0.50;;;;;;;15.36;91.25;97083.00;29394;214;64009;-61
2021/06/24 01:19:55;;;;;;;0.50;0.50;;;;;;;15.39;91.36;97085.09;29395;244;63009;-61
2021/06/24 01:20:34;;;;;;;0.45;0.45;;;;;;;15.42;90.85;97090.75;29395;194;63011;-60
2021/06/24 01:21:06;;;;;;;0.50;0.50;;;;;;;15.42;90.92;97088.00;29394;314;64013;-60
2021/06/24 01:21:37;;;;;;;0.50;0.50;;;;;;;15.41;90.75;97083.66;29395;237;63004;-60
2021/06/24 01:22:09;;;;;;;0.50;0.50;;;;;;;15.40;91.00;97086.72;29395;226;63009;-62
2021/06/24 01:22:40;;;;;;;0.50;0.50;;;;;;;15.38;90.72;97089.75;29395;197;63004;-62
2021/06/24 01:23:11;;;;;;;0.50;0.50;;;;;;;15.36;90.98;97086.53;29395;225;63009;-61
2021/06/24 01:23:44;;;;;;;0.50;0.50;;;;;;;15.37;90.83;97088.16;29395;188;63004;-57
2021/06/24 01:24:17;;;;;;;0.50;0.50;;;;;;;15.36;91.22;97092.00;29395;219;63013;-61
2021/06/24 01:24:48;;;;;;;0.50;0.50;;;;;;;15.36;90.87;97083.81;29394;228;64009;-61
2021/06/24 01:25:21;;;;;;;0.50;0.50;;;;;;;15.36;91.35;97091.19;29395;220;63009;-60
2021/06/24 01:25:53;;;;;;;0.50;0.50;;;;;;;15.34;91.17;97091.53;29395;240;63005;-61
2021/06/24 01:26:24;;;;;;;0.50;0.50;;;;;;;15.33;91.25;97092.66;29395;205;63009;-61
2021/06/24 01:26:56;;;;;;;0.50;0.50;;;;;;;15.32;91.24;97096.50;29395;272;63005;-61
2021/06/24 01:27:27;;;;;;;0.50;0.50;;;;;;;15.32;91.37;97084.75;29394;205;64013;-61
2021/06/24 01:28:06;;;;;;;0.50;0.50;;;;;;;15.31;91.30;97094.88;29395;235;63005;-61
2021/06/24 01:28:37;;;;;;;0.50;0.50;;;;;;;15.28;91.73;97090.06;29395;283;63009;-60
2021/06/24 01:29:09;;;;;;;0.50;0.50;;;;;;;15.28;91.39;97095.53;29395;359;63007;-61
2021/06/24 01:29:40;;;;;;;0.50;0.50;;;;;;;15.28;91.83;97095.53;29395;202;63009;-62
2021/06/24 01:30:13;;;;;;;0.50;0.50;;;;;;;15.28;91.44;97095.53;29395;323;63004;-61
2021/06/24 01:30:44;;;;;;;0.50;0.50;;;;;;;15.29;91.61;97093.59;29395;283;63009;-61
2021/06/24 01:31:17;;;;;;;0.50;0.50;;;;;;;15.28;91.69;97090.06;29395;202;63004;-60
2021/06/24 01:31:48;;;;;;;0.50;0.50;;;;;;;15.28;91.65;97095.53;29395;226;63019;-60
2021/06/24 01:32:21;;;;;;;0.50;0.50;;;;;;;15.28;91.93;97098.25;29395;202;63005;-59
2021/06/24 01:32:53;;;;;;;0.50;0.50;;;;;;;15.29;92.10;97094.41;29394;255;64014;-60
2021/06/24 01:33:25;;;;;;;0.50;0.50;;;;;;;15.30;91.93;97095.19;29395;208;63001;-59
2021/06/24 01:33:58;;;;;;;0.50;0.50;;;;;;;15.31;92.25;97094.88;29395;212;63009;-60
2021/06/24 01:34:29;;;;;;;0.50;0.50;;;;;;;15.32;92.07;97093.75;29394;276;64009;-59
2021/06/24 01:35:01;;;;;;;0.50;0.50;;;;;;;15.30;91.93;97089.75;29395;216;63009;-59
2021/06/24 01:35:34;;;;;;;0.50;0.50;;;;;;;15.28;91.76;97092.78;29395;221;63005;-60
2021/06/24 01:36:07;;;;;;;0.50;0.50;;;;;;;15.30;91.73;97092.47;29395;232;63009;-59
2021/06/24 01:36:39;;;;;;;0.50;0.50;;;;;;;15.30;91.60;97090.53;29395;265;63004;-60
2021/06/24 01:37:10;;;;;;;0.50;0.50;;;;;;;15.30;91.74;97090.53;29395;204;63009;-59
2021/06/24 01:37:43;;;;;;;0.50;0.50;;;;;;;15.30;91.89;97092.47;29395;210;63004;-59
2021/06/24 01:38:15;;;;;;;0.50;0.50;;;;;;;15.29;91.79;97096.31;29395;248;63009;-58
2021/06/24 01:38:48;;;;;;;0.50;0.50;;;;;;;15.26;91.56;97092.28;29394;196;64009;-59
2021/06/24 01:39:19;;;;;;;0.50;0.50;;;;;;;15.23;91.90;97090.22;29395;200;63008;-59
2021/06/24 01:39:50;;;;;;;0.50;0.50;;;;;;;15.22;91.79;97085.88;29395;197;63005;-61
2021/06/24 01:40:22;;;;;;;0.50;0.50;;;;;;;15.21;91.79;97089.75;29395;234;63009;-61
2021/06/24 01:40:53;;;;;;;0.50;0.50;;;;;;;15.20;91.64;97088.13;29395;198;63005;-60
2021/06/24 01:41:25;;;;;;;0.50;0.50;;;;;;;15.22;91.85;97094.09;29395;211;63009;-61
2021/06/24 01:41:58;;;;;;;0.98;0.98;;;;;;;15.22;92.08;97090.53;29395;216;63005;-60
2021/06/24 01:42:30;;;;;;;0.50;0.50;;;;;;;15.20;91.82;97088.13;29395;196;63009;-60
2021/06/24 01:43:02;;;;;;;0.50;0.50;;;;;;;15.19;91.42;97091.19;29395;240;63005;-62
2021/06/24 01:43:33;;;;;;;0.40;0.40;;;;;;;15.20;91.77;97082.66;29395;225;63009;-61
2021/06/24 01:44:05;;;;;;;0.40;0.40;;;;;;;15.22;91.86;97085.88;29394;214;64009;-60
2021/06/24 01:44:37;;;;;;;0.40;0.40;;;;;;;15.22;91.90;97094.09;29395;203;63009;-62
2021/06/24 01:45:09;;;;;;;0.40;0.40;;;;;;;15.22;91.81;97088.63;29395;215;63014;-61
2021/06/24 01:45:48;;;;;;;0.40;0.40;;;;;;;15.24;91.96;97085.56;29395;232;63009;-61
2021/06/24 01:46:19;;;;;;;0.40;0.40;;;;;;;15.25;92.04;97085.22;29395;237;63004;-61
2021/06/24 01:46:52;;;;;;;0.40;0.40;;;;;;;15.25;91.82;97089.87;29395;218;63008;-57
2021/06/24 01:47:23;;;;;;;0.40;0.40;;;;;;;15.24;92.03;97089.09;29394;230;64009;-62
2021/06/24 01:47:54;;;;;;;0.40;0.40;;;;;;;15.26;92.07;97083.28;29395;203;63009;-61
2021/06/24 01:48:27;;;;;;;0.40;0.40;;;;;;;15.26;91.95;97086.84;29394;227;64005;-61
2021/06/24 01:48:58;;;;;;;0.45;0.45;;;;;;;15.26;91.96;97089.56;29394;208;64013;-61
2021/06/24 01:49:30;;;;;;;0.40;0.40;;;;;;;15.27;91.63;97079.44;29394;293;64005;-61
2021/06/24 01:50:07;;;;;;;0.50;0.50;;;;;;;15.27;91.74;97082.97;29395;367;63009;-61
2021/06/24 01:50:39;;;;;;;0.50;0.50;;;;;;;15.28;91.51;97078.31;29395;218;63005;-61
2021/06/24 01:51:10;;;;;;;0.50;0.50;;;;;;;15.25;91.58;97082.47;29395;224;63009;-61
2021/06/24 01:51:41;;;;;;;0.40;0.40;;;;;;;15.25;91.48;97070.75;29395;265;63004;-61
2021/06/24 01:52:12;;;;;;;0.40;0.40;;;;;;;15.23;91.34;97076.56;29395;270;63009;-60
2021/06/24 01:52:45;;;;;;;0.50;0.50;;;;;;;15.23;91.10;97078.50;29394;205;64009;-56
2021/06/24 01:53:17;;;;;;;0.50;0.50;;;;;;;15.22;91.08;97074.16;29395;224;63009;-62
2021/06/24 01:53:49;;;;;;;0.40;0.40;;;;;;;15.22;90.72;97074.94;29395;215;63004;-59
2021/06/24 01:54:21;;;;;;;0.40;0.40;;;;;;;15.22;91.06;97069.47;29395;223;63008;-61
2021/06/24 01:54:53;;;;;;;0.50;0.50;;;;;;;15.24;91.02;97078.16;29395;215;63005;-60
2021/06/24 01:55:33;;;;;;;0.40;0.40;;;;;;;15.25;91.26;97074.28;29395;219;63009;-60
2021/06/24 01:56:05;;;;;;;0.50;0.50;;;;;;;15.26;91.29;97067.69;29416;199;64009;-60
2021/06/24 01:56:37;;;;;;;0.40;0.40;;;;;;;15.26;91.20;97073.16;29395;218;63009;-60
2021/06/24 01:57:16;;;;;;;0.50;0.50;;;;;;;15.26;91.37;97066.87;29394;308;64009;-61
2021/06/24 01:57:51;;;;;;;0.50;0.50;;;;;;;15.24;91.42;97067.25;29394;249;64009;-59
2021/06/24 01:58:23;;;;;;;0.50;0.50;;;;;;;15.24;91.43;97072.69;29395;215;63004;-62
2021/06/24 01:58:54;;;;;;;0.50;0.50;;;;;;;15.23;91.22;97076.56;29395;200;63009;-61
2021/06/24 01:59:27;;;;;;;0.50;0.50;;;;;;;15.23;91.25;97075.75;29394;198;64009;-60
2021/06/24 01:59:59;;;;;;;0.50;0.50;;;;;;;15.22;91.34;97069.47;29395;234;63009;-62
2021/06/24 02:00:34;;;;;;;0.50;0.50;;;;;;;15.22;91.55;97068.69;29395;199;63004;-61
2021/06/24 02:01:09;;;;;;;0.50;0.50;;;;;;;15.22;91.46;97071.41;29395;227;63008;-61
2021/06/24 02:01:41;;;;;;;0.50;0.50;;;;;;;15.20;91.39;97071.72;29394;198;64008;-61
2021/06/24 02:02:13;;;;;;;0.50;0.50;;;;;;;15.20;91.34;97069.00;29395;252;63009;-61
2021/06/24 02:02:44;;;;;;;0.50;0.50;;;;;;;15.20;91.65;97071.72;29395;220;63005;-61
2021/06/24 02:03:16;;;;;;;0.50;0.50;;;;;;;15.19;91.27;97064.66;29395;197;63009;-61
2021/06/24 02:03:48;;;;;;;0.50;0.50;;;;;;;15.15;91.42;97069.13;29395;370;63005;-61
2021/06/24 02:04:25;;;;;;;0.50;0.50;;;;;;;15.15;91.24;97074.59;29395;208;63009;-57
2021/06/24 02:04:56;;;;;;;0.50;0.50;;;;;;;15.14;91.45;97067.53;29395;269;63008;-60
2021/06/24 02:05:29;;;;;;;0.50;0.50;;;;;;;15.15;91.51;97073.81;29395;218;63009;-60
2021/06/24 02:06:00;;;;;;;0.50;0.50;;;;;;;15.13;91.25;97065.91;29395;215;63004;-61
2021/06/24 02:06:32;;;;;;;0.50;0.50;;;;;;;15.13;91.20;97065.13;29394;291;64013;-63
2021/06/24 02:07:04;;;;;;;0.40;0.40;;;;;;;15.09;91.15;97060.28;29395;228;63004;-62
2021/06/24 02:07:40;;;;;;;0.50;0.50;;;;;;;15.12;91.35;97061.56;29395;236;63004;-61
2021/06/24 02:08:16;;;;;;;0.50;0.50;;;;;;;15.10;91.37;97055.62;29395;244;63015;-61
2021/06/24 02:08:47;;;;;;;0.50;0.50;;;;;;;15.13;91.26;97060.44;29395;209;63008;-62
2021/06/24 02:09:20;;;;;;;0.50;0.50;;;;;;;15.12;91.43;97058.84;29395;212;63005;-62
2021/06/24 02:09:52;;;;;;;0.50;0.50;;;;;;;15.12;91.18;97060.75;29395;202;63009;-61
2021/06/24 02:10:23;;;;;;;0.50;0.50;;;;;;;15.12;91.49;97053.38;29395;209;63005;-61
2021/06/24 02:10:57;;;;;;;0.40;0.40;;;;;;;15.13;91.40;97054.97;29395;207;63009;-62
2021/06/24 02:11:28;;;;;;;0.50;0.50;;;;;;;15.13;91.32;97052.25;29394;229;64009;-56
2021/06/24 02:12:00;;;;;;;0.50;0.50;;;;;;;15.13;91.05;97054.19;29395;297;63009;-61
2021/06/24 02:12:31;;;;;;;0.50;0.50;;;;;;;15.11;91.38;97057.22;29395;225;63005;-57
2021/06/24 02:13:02;;;;;;;0.50;0.50;;;;;;;15.11;91.13;97051.75;29395;244;63009;-61
2021/06/24 02:13:34;;;;;;;0.45;0.45;;;;;;;15.11;91.42;97057.22;29395;226;63004;-61
2021/06/24 02:14:05;;;;;;;0.40;0.40;;;;;;;15.11;91.19;97051.75;29395;269;63009;-61
2021/06/24 02:14:36;;;;;;;0.50;0.50;;;;;;;15.11;91.13;97056.41;29395;273;63004;-61
2021/06/24 02:15:11;;;;;;;0.50;0.50;;;;;;;15.10;91.38;97055.62;29395;203;63009;-61
2021/06/24 02:15:42;;;;;;;0.50;0.50;;;;;;;15.10;91.14;97058.34;29395;202;63004;-61
2021/06/24 02:16:15;;;;;;;0.50;0.50;;;;;;;15.07;91.43;97048.84;29395;218;63008;-60
2021/06/24 02:16:46;;;;;;;0.50;0.50;;;;;;;15.08;91.48;97055.12;29394;221;64009;-61
2021/06/24 02:17:17;;;;;;;0.50;0.50;;;;;;;15.09;91.29;97056.75;29395;199;63005;-62
2021/06/24 02:17:48;;;;;;;0.50;0.50;;;;;;;15.09;91.53;97051.28;29395;255;63005;-61
2021/06/24 02:18:20;;;;;;;0.50;0.50;;;;;;;15.09;91.76;97054.81;29395;205;63009;-61
2021/06/24 02:18:51;;;;;;;1.30;1.30;;;;;;;15.09;91.42;97051.28;29395;346;63005;-61
2021/06/24 02:19:22;;;;;;;0.50;0.50;;;;;;;15.06;91.46;97055.44;29394;213;64013;-62
2021/06/24 02:19:53;;;;;;;0.75;0.75;;;;;;;15.04;91.64;97044.03;29395;200;63005;-57
2021/06/24 02:20:24;;;;;;;0.50;0.50;;;;;;;15.03;91.95;97052.53;29395;221;63009;-61
2021/06/24 02:20:55;;;;;;;0.50;0.50;;;;;;;15.02;91.96;97043.53;29395;205;63004;-61
2021/06/24 02:21:27;;;;;;;0.50;0.50;;;;;;;15.02;91.94;97042.72;29395;214;63009;-60
2021/06/24 02:21:58;;;;;;;0.40;0.40;;;;;;;15.01;91.80;97046.59;29395;241;63004;-60
2021/06/24 02:22:29;;;;;;;0.40;0.40;;;;;;;15.01;91.99;97043.84;29395;267;63009;-60
2021/06/24 02:23:00;;;;;;;0.50;0.50;;;;;;;15.00;91.81;97040.31;29395;207;63004;-60
2021/06/24 02:23:31;;;;;;;0.47;0.47;;;;;;;15.01;91.71;97043.84;29394;210;64013;-61
2021/06/24 02:24:04;;;;;;;0.40;0.40;;;;;;;15.00;91.53;97039.50;29395;218;63004;-60
2021/06/24 02:24:35;;;;;;;0.50;0.50;;;;;;;14.99;91.52;97037.91;29395;220;63009;-62
2021/06/24 02:25:09;;;;;;;0.50;0.50;;;;;;;14.98;91.54;97036.28;29394;204;64009;-62
2021/06/24 02:25:40;;;;;;;0.50;0.50;;;;;;;14.99;91.60;97038.69;29395;197;63017;-62
2021/06/24 02:26:12;;;;;;;0.50;0.50;;;;;;;14.99;91.55;97035.97;29395;268;63005;-61
2021/06/24 02:26:46;;;;;;;0.40;0.40;;;;;;;14.99;91.78;97032.44;29395;269;63009;-62
2021/06/24 02:27:17;;;;;;;0.50;0.50;;;;;;;14.99;91.54;97032.44;29395;238;63012;-60
2021/06/24 02:27:52;;;;;;;0.50;0.50;;;;;;;14.98;91.99;97026.16;29395;221;63009;-61
2021/06/24 02:28:23;;;;;;;0.50;0.50;;;;;;;14.98;91.66;97036.28;29394;236;64009;-61
2021/06/24 02:28:54;;;;;;;0.47;0.47;;;;;;;14.97;91.68;97024.56;29395;332;63009;-62
2021/06/24 02:29:25;;;;;;;0.50;0.50;;;;;;;14.98;91.58;97031.62;29395;198;63004;-60
2021/06/24 02:29:56;;;;;;;0.47;0.47;;;;;;;14.96;91.74;97033.88;29395;222;63009;-61
2021/06/24 02:30:28;;;;;;;0.45;0.45;;;;;;;14.94;91.54;97029.84;29394;210;64009;-62
2021/06/24 02:30:59;;;;;;;0.50;0.50;;;;;;;14.95;91.67;97026.78;29394;230;64013;-62
2021/06/24 02:31:30;;;;;;;0.50;0.50;;;;;;;14.97;91.51;97031.94;29395;334;63010;-61
2021/06/24 02:32:02;;;;;;;0.50;0.50;;;;;;;14.97;91.75;97024.56;29395;260;63009;-62
2021/06/24 02:32:34;;;;;;;0.50;0.50;;;;;;;14.98;91.33;97030.81;29395;202;63009;-58
2021/06/24 02:33:07;;;;;;;0.40;0.40;;;;;;;14.97;91.50;97021.00;29395;197;63009;-61
2021/06/24 02:33:40;;;;;;;0.40;0.40;;;;;;;14.99;91.62;97035.16;29394;343;64009;-61